Time;durP1;ratioP1;P1;durP2;ratioP2;P2;SDS_P1;SDS_P2;PMS_P1;PMS_P2;Temp;Humidity;BMP_temperature;BMP_pressure;BME280_temperature;BME280_humidity;BME280_pressure;Samples;Min_cycle;Max_cycle;Signal;HPM_P1;HPM_P2
2022/07/25 00:01:56;;;;;;;1.50;1.30;;;;;;;;;;10435953;28;20210;-78
2022/07/25 00:06:57;;;;;;;2.78;1.40;;;;;;;;;;10438646;28;20224;-77
2022/07/25 00:11:58;;;;;;;1.60;1.50;;;;;;;;;;10452834;28;20244;-78
2022/07/25 00:17:00;;;;;;;1.27;1.25;;;;;;;;;;10439050;28;21755;-79
2022/07/25 00:22:01;;;;;;;1.67;1.50;;;;;;;;;;10446320;28;20281;-78
2022/07/25 00:27:02;;;;;;;1.60;1.60;;;;;;;;;;10443566;28;20294;-78
2022/07/25 00:32:03;;;;;;;1.75;1.48;;;;;;;;;;10444183;28;20215;-78
2022/07/25 00:37:04;;;;;;;1.35;1.35;;;;;;;;;;10445313;28;20182;-78
2022/07/25 00:42:05;;;;;;;2.38;1.23;;;;;;;;;;10457132;28;20206;-79
2022/07/25 00:47:06;;;;;;;1.98;1.88;;;;;;;;;;10451045;28;20187;-78
2022/07/25 00:52:08;;;;;;;2.05;1.92;;;;;;;;;;10444079;28;20186;-78
2022/07/25 00:57:09;;;;;;;2.13;1.90;;;;;;;;;;10447616;28;20240;-78
2022/07/25 01:02:10;;;;;;;2.70;1.60;;;;;;;;;;10438610;28;21150;-78
2022/07/25 01:07:11;;;;;;;1.27;1.27;;;;;;;;;;10446075;28;20547;-78
2022/07/25 01:12:12;;;;;;;1.70;1.70;;;;;;;;;;10439843;28;20643;-78
2022/07/25 01:17:13;;;;;;;1.45;1.45;;;;;;;;;;10435461;28;20305;-79
2022/07/25 01:22:14;;;;;;;2.35;1.50;;;;;;;;;;10432657;28;20193;-78
2022/07/25 01:27:15;;;;;;;1.90;1.80;;;;;;;;;;10431368;28;20175;-78
2022/07/25 01:32:16;;;;;;;1.50;1.50;;;;;;;;;;10444669;28;20229;-78
2022/07/25 01:37:17;;;;;;;1.95;1.60;;;;;;;;;;10442896;28;20626;-77
2022/07/25 01:42:18;;;;;;;1.67;1.50;;;;;;;;;;10440755;28;20596;-78
2022/07/25 01:47:19;;;;;;;1.90;1.80;;;;;;;;;;10455109;28;20229;-78
2022/07/25 01:52:21;;;;;;;1.75;1.65;;;;;;;;;;10451263;28;20192;-78
2022/07/25 01:57:22;;;;;;;1.52;1.52;;;;;;;;;;10444328;28;20218;-77
2022/07/25 02:02:23;;;;;;;1.77;1.77;;;;;;;;;;10446625;28;20211;-78
2022/07/25 02:07:24;;;;;;;1.77;1.67;;;;;;;;;;10441773;28;20170;-79
2022/07/25 02:12:25;;;;;;;1.90;1.90;;;;;;;;;;10448446;28;20295;-78
2022/07/25 02:17:26;;;;;;;2.75;1.90;;;;;;;;;;10465020;28;20219;-77
2022/07/25 02:22:27;;;;;;;1.70;1.60;;;;;;;;;;10460297;28;20186;-78
2022/07/25 02:27:28;;;;;;;1.65;1.55;;;;;;;;;;10464158;28;20179;-78
2022/07/25 02:32:29;;;;;;;1.92;1.90;;;;;;;;;;10445409;28;20223;-78
2022/07/25 02:37:30;;;;;;;1.77;1.77;;;;;;;;;;10452906;28;20517;-78
2022/07/25 02:42:32;;;;;;;1.80;1.80;;;;;;;;;;10442666;28;20647;-77
2022/07/25 02:47:33;;;;;;;2.00;2.00;;;;;;;;;;10451243;28;20199;-77
2022/07/25 02:52:34;;;;;;;1.60;1.50;;;;;;;;;;10452151;28;20283;-77
2022/07/25 02:57:35;;;;;;;2.08;1.98;;;;;;;;;;10453021;28;20202;-78
2022/07/25 03:02:36;;;;;;;1.80;1.70;;;;;;;;;;10445652;28;20234;-78
2022/07/25 03:07:38;;;;;;;1.95;1.95;;;;;;;;;;10450838;28;20970;-78
2022/07/25 03:12:39;;;;;;;2.22;2.15;;;;;;;;;;10450922;28;20244;-78
2022/07/25 03:17:41;;;;;;;2.00;1.90;;;;;;;;;;10466051;28;20249;-77
2022/07/25 03:22:42;;;;;;;2.33;2.10;;;;;;;;;;10449375;28;20185;-78
2022/07/25 03:27:43;;;;;;;1.83;1.83;;;;;;;;;;10444217;28;20183;-77
2022/07/25 03:32:44;;;;;;;1.80;1.80;;;;;;;;;;10449080;28;20253;-78
2022/07/25 03:37:45;;;;;;;2.42;2.33;;;;;;;;;;10450795;28;20289;-78
2022/07/25 03:42:46;;;;;;;2.15;2.15;;;;;;;;;;10448117;28;20183;-78
2022/07/25 03:47:47;;;;;;;2.33;2.33;;;;;;;;;;10447454;28;20259;-78
2022/07/25 03:52:48;;;;;;;3.30;1.90;;;;;;;;;;10448310;28;20186;-78
2022/07/25 03:57:49;;;;;;;2.67;2.50;;;;;;;;;;10444530;28;20218;-78
2022/07/25 04:02:50;;;;;;;2.00;2.00;;;;;;;;;;10445823;28;20210;-77
2022/07/25 04:07:51;;;;;;;2.20;2.10;;;;;;;;;;10445190;28;20194;-78
2022/07/25 04:12:52;;;;;;;2.20;2.10;;;;;;;;;;10452564;28;20695;-77
2022/07/25 04:17:54;;;;;;;2.80;2.60;;;;;;;;;;10444003;28;20198;-77
2022/07/25 04:22:55;;;;;;;1.95;1.85;;;;;;;;;;10448798;28;20533;-77
2022/07/25 04:27:56;;;;;;;2.30;2.20;;;;;;;;;;10449964;28;20203;-77
2022/07/25 04:32:57;;;;;;;2.00;2.00;;;;;;;;;;10445738;28;20697;-77
2022/07/25 04:37:58;;;;;;;2.20;2.00;;;;;;;;;;10461897;28;20257;-77
2022/07/25 04:42:59;;;;;;;2.78;1.92;;;;;;;;;;10446566;28;20693;-78
2022/07/25 04:48:00;;;;;;;2.67;2.38;;;;;;;;;;10445354;28;20203;-77
2022/07/25 04:53:01;;;;;;;2.72;2.53;;;;;;;;;;10454138;28;20624;-78
2022/07/25 04:58:02;;;;;;;2.50;2.30;;;;;;;;;;10450702;28;20264;-77
2022/07/25 05:03:03;;;;;;;2.63;2.35;;;;;;;;;;10451628;28;20213;-78
2022/07/25 05:08:05;;;;;;;3.03;2.58;;;;;;;;;;10435926;28;20188;-68
2022/07/25 05:13:06;;;;;;;3.17;2.28;;;;;;;;;;10442724;28;20223;-67
2022/07/25 05:18:07;;;;;;;2.90;2.72;;;;;;;;;;10450078;28;20237;-66
2022/07/25 05:23:08;;;;;;;2.72;2.45;;;;;;;;;;10446283;28;20349;-68
2022/07/25 05:28:09;;;;;;;2.65;2.45;;;;;;;;;;10437764;28;20293;-67
2022/07/25 05:33:10;;;;;;;2.63;2.42;;;;;;;;;;10445925;28;20219;-66
2022/07/25 05:38:11;;;;;;;3.15;2.35;;;;;;;;;;10450041;28;20210;-65
2022/07/25 05:43:12;;;;;;;2.70;2.45;;;;;;;;;;10439358;28;20546;-66
2022/07/25 05:48:16;;;;;;;3.25;2.88;;;;;;;;;;10443616;28;20199;-66
2022/07/25 05:53:17;;;;;;;2.65;2.45;;;;;;;;;;10431738;28;20187;-72
2022/07/25 05:58:18;;;;;;;3.63;2.83;;;;;;;;;;10446314;28;20961;-71
2022/07/25 06:03:19;;;;;;;3.35;2.60;;;;;;;;;;10453349;28;20293;-77
2022/07/25 06:08:20;;;;;;;3.40;3.20;;;;;;;;;;10440039;28;20175;-77
2022/07/25 06:13:21;;;;;;;4.75;2.95;;;;;;;;;;10454779;28;20206;-77
2022/07/25 06:18:23;;;;;;;2.70;2.60;;;;;;;;;;10454567;28;20202;-78
2022/07/25 06:23:24;;;;;;;4.28;2.92;;;;;;;;;;10456470;28;20178;-77
2022/07/25 06:28:25;;;;;;;3.17;2.70;;;;;;;;;;10448849;28;20185;-78
2022/07/25 06:33:26;;;;;;;3.42;2.72;;;;;;;;;;10450372;28;20233;-79
2022/07/25 06:38:27;;;;;;;6.18;3.17;;;;;;;;;;10453842;28;20193;-78
2022/07/25 06:43:28;;;;;;;3.38;3.20;;;;;;;;;;10453375;28;20178;-79
2022/07/25 06:48:29;;;;;;;5.53;3.30;;;;;;;;;;10453448;28;20293;-77
2022/07/25 06:53:30;;;;;;;3.55;3.28;;;;;;;;;;10451490;28;20260;-78
2022/07/25 06:58:32;;;;;;;3.20;2.90;;;;;;;;;;10455269;28;20206;-78
2022/07/25 07:03:36;;;;;;;3.42;3.33;;;;;;;;;;10449144;28;20203;-78
2022/07/25 07:08:37;;;;;;;8.25;3.88;;;;;;;;;;10431844;28;20194;-79
2022/07/25 07:13:39;;;;;;;3.80;3.40;;;;;;;;;;10450536;28;20613;-80
2022/07/25 07:18:40;;;;;;;4.03;3.75;;;;;;;;;;10445268;28;20210;-81
2022/07/25 07:23:41;;;;;;;11.68;3.38;;;;;;;;;;10451302;28;20179;-80
2022/07/25 07:28:42;;;;;;;4.18;3.35;;;;;;;;;;10441468;28;20174;-81
2022/07/25 07:33:43;;;;;;;4.20;3.15;;;;;;;;;;10452050;28;20226;-82
2022/07/25 07:38:45;;;;;;;5.90;4.03;;;;;;;;;;10454259;28;20205;-81
2022/07/25 07:43:46;;;;;;;6.63;3.80;;;;;;;;;;10452630;28;20547;-81
2022/07/25 07:48:47;;;;;;;4.75;3.75;;;;;;;;;;10448626;28;20198;-81
2022/07/25 07:59:09;;;;;;;7.75;4.13;;;;;;;;;;10453770;28;20222;-80
2022/07/25 08:04:10;;;;;;;4.43;4.07;;;;;;;;;;10440265;28;20215;-81
2022/07/25 08:09:11;;;;;;;6.68;4.50;;;;;;;;;;10446930;28;20202;-80
2022/07/25 08:14:12;;;;;;;4.55;4.28;;;;;;;;;;10451783;28;20550;-81
2022/07/25 08:19:13;;;;;;;4.22;4.07;;;;;;;;;;10454386;28;20285;-81
2022/07/25 08:24:14;;;;;;;4.35;4.00;;;;;;;;;;10448558;28;20220;-79
2022/07/25 08:29:15;;;;;;;4.35;4.25;;;;;;;;;;10450008;28;20179;-81
2022/07/25 08:34:18;;;;;;;4.70;4.30;;;;;;;;;;10447221;28;20218;-81
2022/07/25 08:39:19;;;;;;;4.97;4.50;;;;;;;;;;10444374;28;20306;-79
2022/07/25 08:44:20;;;;;;;5.32;4.95;;;;;;;;;;10446103;28;20619;-80
2022/07/25 08:49:21;;;;;;;4.72;4.53;;;;;;;;;;10446430;28;20195;-80
2022/07/25 08:54:25;;;;;;;4.72;4.43;;;;;;;;;;10447486;28;20206;-81
2022/07/25 08:59:26;;;;;;;5.35;5.15;;;;;;;;;;10445734;28;20206;-82
2022/07/25 09:04:29;;;;;;;6.20;5.45;;;;;;;;;;10443629;28;20215;-81
2022/07/25 09:09:31;;;;;;;5.55;5.20;;;;;;;;;;10441740;28;20186;-80
2022/07/25 09:14:46;;;;;;;5.35;5.13;;;;;;;;;;10456209;28;20182;-78
2022/07/25 09:19:54;;;;;;;6.00;5.75;;;;;;;;;;10445624;28;20577;-80
2022/07/25 09:24:55;;;;;;;5.20;5.05;;;;;;;;;;10435450;28;20182;-79
2022/07/25 09:29:56;;;;;;;7.18;5.78;;;;;;;;;;10435916;28;20195;-78
2022/07/25 09:34:57;;;;;;;5.88;5.57;;;;;;;;;;10433659;28;20635;-74
2022/07/25 09:39:59;;;;;;;6.20;5.90;;;;;;;;;;10422318;28;20224;-79
2022/07/25 09:45:03;;;;;;;9.55;5.55;;;;;;;;;;10432980;28;20175;-79
2022/07/25 09:50:05;;;;;;;6.28;5.80;;;;;;;;;;10438976;28;20212;-77
2022/07/25 09:55:09;;;;;;;6.35;5.70;;;;;;;;;;10439063;28;20187;-75
2022/07/25 10:00:11;;;;;;;5.55;5.25;;;;;;;;;;10448731;28;20242;-77
2022/07/25 10:05:20;;;;;;;5.60;5.32;;;;;;;;;;10445782;28;20777;-75
2022/07/25 10:10:32;;;;;;;5.95;5.53;;;;;;;;;;10443125;28;20902;-75
2022/07/25 10:15:59;;;;;;;6.43;5.97;;;;;;;;;;10448141;28;20221;-73
2022/07/25 10:21:11;;;;;;;5.63;5.43;;;;;;;;;;10444873;28;20254;-75
2022/07/25 10:26:14;;;;;;;6.53;6.00;;;;;;;;;;10463600;28;20555;-74
2022/07/25 10:31:34;;;;;;;8.40;5.40;;;;;;;;;;10445650;28;20312;-74
2022/07/25 10:36:43;;;;;;;6.20;5.28;;;;;;;;;;10442819;28;20178;-74
2022/07/25 10:41:49;;;;;;;6.22;5.70;;;;;;;;;;10444566;28;20262;-76
2022/07/25 10:46:50;;;;;;;5.30;5.07;;;;;;;;;;10442621;28;20209;-74
2022/07/25 10:51:56;;;;;;;6.88;6.18;;;;;;;;;;10440801;28;20182;-74
2022/07/25 10:56:58;;;;;;;6.07;5.55;;;;;;;;;;10442505;28;20194;-76
2022/07/25 11:01:59;;;;;;;6.28;5.82;;;;;;;;;;10440099;28;20252;-76
2022/07/25 11:07:08;;;;;;;6.32;5.97;;;;;;;;;;10443173;28;20608;-72
2022/07/25 11:12:13;;;;;;;6.32;6.03;;;;;;;;;;10440667;28;20171;-75
2022/07/25 11:17:19;;;;;;;6.40;6.20;;;;;;;;;;10445607;28;20337;-77
2022/07/25 11:22:20;;;;;;;6.18;5.85;;;;;;;;;;10457303;28;20686;-75
2022/07/25 11:27:26;;;;;;;6.30;6.00;;;;;;;;;;10443875;28;20175;-77
2022/07/25 11:32:27;;;;;;;6.40;6.15;;;;;;;;;;10456028;28;20225;-76
2022/07/25 11:37:33;;;;;;;7.03;6.72;;;;;;;;;;10440324;28;20179;-76
2022/07/25 11:42:44;;;;;;;7.05;6.50;;;;;;;;;;10441620;28;20171;-76
2022/07/25 11:47:46;;;;;;;7.10;6.60;;;;;;;;;;10443815;28;20206;-75
2022/07/25 11:52:57;;;;;;;6.80;6.50;;;;;;;;;;10443283;28;20736;-75
2022/07/25 11:58:00;;;;;;;6.60;6.18;;;;;;;;;;10431735;28;20218;-76
2022/07/25 12:03:08;;;;;;;6.15;5.85;;;;;;;;;;10437617;28;20290;-76
2022/07/25 12:08:10;;;;;;;6.80;6.40;;;;;;;;;;10440078;28;20213;-76
2022/07/25 12:13:21;;;;;;;7.20;6.47;;;;;;;;;;10438759;28;20186;-76
2022/07/25 12:18:22;;;;;;;6.40;6.10;;;;;;;;;;10438395;28;20248;-76
2022/07/25 12:23:23;;;;;;;6.55;6.13;;;;;;;;;;10438962;28;20179;-77
2022/07/25 12:28:24;;;;;;;6.78;6.30;;;;;;;;;;10422181;28;20189;-77
2022/07/25 12:33:25;;;;;;;6.50;6.07;;;;;;;;;;10432721;28;20721;-75
2022/07/25 12:38:27;;;;;;;6.38;5.90;;;;;;;;;;10442060;28;20214;-77
2022/07/25 12:43:28;;;;;;;6.57;6.38;;;;;;;;;;10449242;28;20190;-76
2022/07/25 12:48:29;;;;;;;6.70;6.13;;;;;;;;;;10442597;28;20202;-76
2022/07/25 12:53:30;;;;;;;6.95;6.00;;;;;;;;;;10429935;28;20193;-75
2022/07/25 12:58:31;;;;;;;5.80;5.60;;;;;;;;;;10441457;28;20242;-77
2022/07/25 13:03:32;;;;;;;6.07;5.68;;;;;;;;;;10441956;28;20703;-75
2022/07/25 13:08:36;;;;;;;6.22;5.80;;;;;;;;;;10439766;28;20184;-75
2022/07/25 13:13:38;;;;;;;6.05;5.70;;;;;;;;;;10453379;28;20286;-76
2022/07/25 13:18:39;;;;;;;5.72;5.50;;;;;;;;;;10429321;28;20922;-77
2022/07/25 13:23:40;;;;;;;5.65;5.20;;;;;;;;;;10442414;28;20192;-75
2022/07/25 13:28:41;;;;;;;5.50;5.25;;;;;;;;;;10444564;28;20285;-75
2022/07/25 13:33:42;;;;;;;5.80;5.50;;;;;;;;;;10449027;28;20313;-78
2022/07/25 13:38:45;;;;;;;5.53;5.32;;;;;;;;;;10464532;28;20214;-75
2022/07/25 13:43:46;;;;;;;5.43;5.20;;;;;;;;;;10452725;28;20185;-76
2022/07/25 13:48:47;;;;;;;5.93;5.57;;;;;;;;;;10455233;28;20198;-78
2022/07/25 13:53:48;;;;;;;6.35;5.80;;;;;;;;;;10449060;28;20189;-75
2022/07/25 13:58:49;;;;;;;5.57;5.22;;;;;;;;;;10446094;28;21113;-78
2022/07/25 14:03:50;;;;;;;4.97;4.75;;;;;;;;;;10445401;28;20206;-77
2022/07/25 14:08:52;;;;;;;5.13;4.93;;;;;;;;;;10442556;28;20229;-77
2022/07/25 14:13:54;;;;;;;5.60;5.07;;;;;;;;;;10439639;28;20187;-78
2022/07/25 14:18:55;;;;;;;4.80;4.60;;;;;;;;;;10443584;28;20213;-78
2022/07/25 14:23:56;;;;;;;4.45;4.32;;;;;;;;;;10445634;28;20281;-79
2022/07/25 14:28:57;;;;;;;6.10;4.80;;;;;;;;;;10444331;28;20182;-80
2022/07/25 14:33:59;;;;;;;5.47;5.28;;;;;;;;;;10447723;28;20237;-80
2022/07/25 14:39:01;;;;;;;4.07;3.97;;;;;;;;;;10446555;28;20314;-80
2022/07/25 14:44:02;;;;;;;4.32;4.10;;;;;;;;;;10444023;28;20191;-81
2022/07/25 14:49:03;;;;;;;4.85;4.18;;;;;;;;;;10443751;28;20305;-80
2022/07/25 14:54:04;;;;;;;4.22;4.00;;;;;;;;;;10448990;28;20222;-80
2022/07/25 14:59:06;;;;;;;4.18;3.97;;;;;;;;;;10443526;28;20214;-77
2022/07/25 15:04:07;;;;;;;4.53;4.22;;;;;;;;;;10451603;28;20274;-81
2022/07/25 15:09:08;;;;;;;3.92;3.72;;;;;;;;;;10444659;28;20278;-81
2022/07/25 15:14:09;;;;;;;4.40;4.00;;;;;;;;;;10447744;28;20270;-76
2022/07/25 15:19:10;;;;;;;4.43;4.13;;;;;;;;;;10450798;28;20245;-80
2022/07/25 15:24:12;;;;;;;4.28;4.18;;;;;;;;;;10452504;28;20178;-80
2022/07/25 15:29:19;;;;;;;5.47;4.22;;;;;;;;;;10440845;28;20190;-76
2022/07/25 15:34:20;;;;;;;5.47;4.95;;;;;;;;;;10449245;28;20611;-75
2022/07/25 15:39:22;;;;;;;6.28;5.80;;;;;;;;;;10441555;28;20210;-77
2022/07/25 15:44:24;;;;;;;6.15;4.72;;;;;;;;;;10431204;28;20179;-77
2022/07/25 15:49:25;;;;;;;6.60;5.70;;;;;;;;;;10430027;28;20294;-73
2022/07/25 15:54:26;;;;;;;9.27;5.50;;;;;;;;;;10435342;28;20982;-78
2022/07/25 15:59:27;;;;;;;5.50;5.10;;;;;;;;;;10438046;28;20259;-79
2022/07/25 16:04:28;;;;;;;5.03;4.28;;;;;;;;;;10437609;28;20598;-78
2022/07/25 16:09:31;;;;;;;4.80;4.60;;;;;;;;;;10431198;28;20274;-79
2022/07/25 16:14:33;;;;;;;5.47;5.00;;;;;;;;;;10441635;28;20241;-75
2022/07/25 16:19:34;;;;;;;6.30;5.57;;;;;;;;;;10442627;28;20264;-76
2022/07/25 16:24:36;;;;;;;4.75;4.45;;;;;;;;;;10440423;28;20260;-75
2022/07/25 16:29:37;;;;;;;5.35;4.68;;;;;;;;;;10443598;28;20178;-76
2022/07/25 16:34:38;;;;;;;7.95;4.65;;;;;;;;;;10442859;28;20226;-76
2022/07/25 16:39:39;;;;;;;5.00;4.63;;;;;;;;;;10440238;28;20781;-71
2022/07/25 16:44:40;;;;;;;4.82;4.60;;;;;;;;;;10426151;28;20226;-72
2022/07/25 16:49:41;;;;;;;4.63;4.50;;;;;;;;;;10424000;28;20225;-73
2022/07/25 16:54:42;;;;;;;4.40;4.22;;;;;;;;;;10436898;28;20183;-75
2022/07/25 16:59:43;;;;;;;3.85;3.65;;;;;;;;;;10432699;28;20222;-75
2022/07/25 17:04:45;;;;;;;2.95;2.92;;;;;;;;;;10436509;28;20210;-75
2022/07/25 17:09:46;;;;;;;4.28;2.97;;;;;;;;;;10445204;28;20186;-74
2022/07/25 17:14:47;;;;;;;3.03;2.83;;;;;;;;;;10446597;28;20179;-75
2022/07/25 17:19:48;;;;;;;3.60;3.50;;;;;;;;;;10443242;28;20210;-74
2022/07/25 17:24:49;;;;;;;3.65;3.45;;;;;;;;;;10448180;28;20193;-72
2022/07/25 17:29:50;;;;;;;3.78;3.67;;;;;;;;;;10449701;28;20191;-78
2022/07/25 17:34:52;;;;;;;4.22;3.92;;;;;;;;;;10451808;28;20313;-75
2022/07/25 17:39:53;;;;;;;5.15;4.68;;;;;;;;;;10456384;28;20241;-77
2022/07/25 17:44:54;;;;;;;4.82;4.45;;;;;;;;;;10452416;28;20179;-76
2022/07/25 17:49:55;;;;;;;4.82;4.43;;;;;;;;;;10448511;28;21057;-75
2022/07/25 17:54:57;;;;;;;4.45;4.22;;;;;;;;;;10437643;28;20270;-71
2022/07/25 17:59:58;;;;;;;4.28;3.97;;;;;;;;;;10443718;28;20213;-73
2022/07/25 18:04:59;;;;;;;4.10;3.80;;;;;;;;;;10438220;28;20206;-71
2022/07/25 18:10:00;;;;;;;4.38;4.00;;;;;;;;;;10437989;28;20202;-69
2022/07/25 18:15:01;;;;;;;4.82;4.50;;;;;;;;;;10445004;28;20187;-69
2022/07/25 18:20:03;;;;;;;4.78;4.35;;;;;;;;;;10439495;28;20657;-71
2022/07/25 18:25:05;;;;;;;5.50;4.38;;;;;;;;;;10440599;28;20191;-75
2022/07/25 18:30:06;;;;;;;6.75;5.85;;;;;;;;;;10435782;28;20187;-72
2022/07/25 18:35:09;;;;;;;7.50;6.88;;;;;;;;;;10443191;28;20317;-72
2022/07/25 18:40:11;;;;;;;8.38;7.30;;;;;;;;;;10453196;28;20219;-72
2022/07/25 18:45:12;;;;;;;9.20;7.43;;;;;;;;;;10428551;28;20182;-68
2022/07/25 18:50:13;;;;;;;8.02;7.32;;;;;;;;;;10430410;28;20210;-74
2022/07/25 18:55:14;;;;;;;8.02;7.47;;;;;;;;;;10435364;28;20182;-70
2022/07/25 19:00:15;;;;;;;7.32;6.75;;;;;;;;;;10433330;28;20198;-69
2022/07/25 19:05:16;;;;;;;7.68;6.88;;;;;;;;;;10428851;28;20211;-72
2022/07/25 19:10:17;;;;;;;7.15;6.55;;;;;;;;;;10435579;28;20187;-72
2022/07/25 19:15:18;;;;;;;7.03;6.65;;;;;;;;;;10430231;28;20229;-72
2022/07/25 19:20:19;;;;;;;7.18;6.80;;;;;;;;;;10429726;28;20211;-68
2022/07/25 19:25:20;;;;;;;6.90;6.18;;;;;;;;;;10435035;28;20457;-69
2022/07/25 19:30:21;;;;;;;5.70;5.32;;;;;;;;;;10433599;28;20696;-69
2022/07/25 19:35:23;;;;;;;5.10;4.80;;;;;;;;;;10433157;28;20224;-69
2022/07/25 19:40:24;;;;;;;6.18;5.80;;;;;;;;;;10433360;28;20206;-69
2022/07/25 19:45:25;;;;;;;6.68;5.60;;;;;;;;;;10444915;28;20188;-72
2022/07/25 19:50:26;;;;;;;5.65;5.35;;;;;;;;;;10433974;28;20206;-70
2022/07/25 19:55:28;;;;;;;6.13;5.72;;;;;;;;;;10437149;28;20189;-70
2022/07/25 20:00:29;;;;;;;6.13;5.63;;;;;;;;;;10442817;28;20211;-70
2022/07/25 20:05:30;;;;;;;6.22;5.72;;;;;;;;;;10433818;28;20186;-71
2022/07/25 20:10:31;;;;;;;5.80;5.40;;;;;;;;;;10437114;28;20629;-70
2022/07/25 20:15:32;;;;;;;6.40;5.90;;;;;;;;;;10439025;28;20712;-71
2022/07/25 20:20:33;;;;;;;6.22;5.82;;;;;;;;;;10441400;28;20206;-71
2022/07/25 20:25:34;;;;;;;7.47;6.75;;;;;;;;;;10432364;28;20190;-71
2022/07/25 20:30:35;;;;;;;6.50;6.07;;;;;;;;;;10440296;28;21803;-71
2022/07/25 20:35:37;;;;;;;7.10;6.47;;;;;;;;;;10435612;28;20191;-70
2022/07/25 20:40:41;;;;;;;5.82;5.40;;;;;;;;;;10437559;28;20202;-70
2022/07/25 20:45:42;;;;;;;6.25;5.25;;;;;;;;;;10454399;28;20217;-70
2022/07/25 20:50:44;;;;;;;5.97;5.53;;;;;;;;;;10458214;28;20205;-70
2022/07/25 20:55:45;;;;;;;18.92;8.98;;;;;;;;;;10453178;28;22027;-68
2022/07/25 21:00:46;;;;;;;8.27;7.50;;;;;;;;;;10464245;28;20225;-68
2022/07/25 21:05:47;;;;;;;8.80;8.05;;;;;;;;;;10487867;28;20557;-69
2022/07/25 21:10:48;;;;;;;8.85;8.05;;;;;;;;;;10490907;28;21065;-70
2022/07/25 21:15:49;;;;;;;9.73;8.85;;;;;;;;;;10490286;28;20181;-70
2022/07/25 21:20:50;;;;;;;9.98;8.85;;;;;;;;;;10484382;28;20236;-70
2022/07/25 21:25:51;;;;;;;8.73;8.13;;;;;;;;;;10451651;28;21155;-71
2022/07/25 21:30:52;;;;;;;11.70;10.02;;;;;;;;;;10490758;28;20232;-71
2022/07/25 21:35:54;;;;;;;8.80;8.07;;;;;;;;;;10469906;28;20285;-71
2022/07/25 21:40:55;;;;;;;8.60;7.78;;;;;;;;;;10458284;28;20197;-72
2022/07/25 21:45:56;;;;;;;10.48;9.50;;;;;;;;;;10488894;28;20223;-73
2022/07/25 21:50:57;;;;;;;9.05;8.35;;;;;;;;;;10485448;28;20201;-73
2022/07/25 21:55:58;;;;;;;7.75;7.15;;;;;;;;;;10485702;28;20579;-73
2022/07/25 22:00:59;;;;;;;8.63;8.00;;;;;;;;;;10492243;28;20717;-73
2022/07/25 22:06:01;;;;;;;8.57;7.78;;;;;;;;;;10494509;28;20185;-73
2022/07/25 22:11:02;;;;;;;9.80;8.88;;;;;;;;;;10494462;28;20978;-73
2022/07/25 22:16:03;;;;;;;9.75;8.95;;;;;;;;;;10497443;28;20209;-74
2022/07/25 22:21:04;;;;;;;9.18;8.38;;;;;;;;;;10494311;28;20206;-74
2022/07/25 22:26:05;;;;;;;9.75;9.00;;;;;;;;;;10495262;28;20627;-74
2022/07/25 22:31:07;;;;;;;7.22;6.80;;;;;;;;;;10486844;28;20210;-74
2022/07/25 22:36:08;;;;;;;9.00;8.35;;;;;;;;;;10496200;28;20178;-74
2022/07/25 22:41:09;;;;;;;8.32;7.72;;;;;;;;;;10494319;28;20214;-75
2022/07/25 22:46:10;;;;;;;9.02;8.27;;;;;;;;;;10473903;28;20183;-74
2022/07/25 22:51:11;;;;;;;9.52;8.77;;;;;;;;;;10488119;28;20267;-75
2022/07/25 22:56:12;;;;;;;9.80;8.82;;;;;;;;;;10443343;28;20184;-74
2022/07/25 23:01:13;;;;;;;8.77;8.25;;;;;;;;;;10483666;28;20328;-74
2022/07/25 23:06:15;;;;;;;9.65;8.88;;;;;;;;;;10482479;28;20751;-74
2022/07/25 23:11:17;;;;;;;9.07;8.38;;;;;;;;;;10451021;28;20186;-78
2022/07/25 23:16:18;;;;;;;10.40;9.40;;;;;;;;;;10480721;28;20265;-76
2022/07/25 23:21:19;;;;;;;10.45;8.98;;;;;;;;;;10481689;28;20218;-76
2022/07/25 23:26:21;;;;;;;9.60;7.90;;;;;;;;;;10488699;28;21292;-75
2022/07/25 23:31:22;;;;;;;10.73;9.80;;;;;;;;;;10464471;28;20222;-74
2022/07/25 23:36:23;;;;;;;10.27;9.48;;;;;;;;;;10491882;28;20654;-74
2022/07/25 23:41:24;;;;;;;10.50;9.80;;;;;;;;;;10495179;28;20206;-75
2022/07/25 23:46:26;;;;;;;10.52;9.77;;;;;;;;;;10467997;28;20202;-75
2022/07/25 23:51:27;;;;;;;10.05;9.23;;;;;;;;;;10455712;28;20209;-75
2022/07/25 23:56:28;;;;;;;10.38;9.38;;;;;;;;;;10489382;28;20194;-77
